Time;durP1;ratioP1;P1;durP2;ratioP2;P2;SDS_P1;SDS_P2;PMS_P1;PMS_P2;Temp;Humidity;BMP_temperature;BMP_pressure;BME280_temperature;BME280_humidity;BME280_pressure;Samples;Min_cycle;Max_cycle;Signal;HPM_P1;HPM_P2
2023/05/24 00:01:32;;;;;;;24.73;4.63;;;10.90;99.90;;;;;;5108131;28;20404;-76
2023/05/24 00:03:59;;;;;;;19.60;5.23;;;10.90;99.90;;;;;;5109414;28;20432;-75
2023/05/24 00:06:26;;;;;;;24.10;5.10;;;11.00;99.90;;;;;;5098852;28;20819;-75
2023/05/24 00:08:55;;;;;;;24.48;5.75;;;11.00;99.90;;;;;;5107871;28;20819;-76
2023/05/24 00:11:21;;;;;;;22.52;4.97;;;11.00;99.90;;;;;;5107680;28;20828;-76
2023/05/24 00:13:47;;;;;;;23.37;5.87;;;11.00;99.90;;;;;;5107551;28;20412;-75
2023/05/24 00:16:14;;;;;;;23.67;5.28;;;11.00;99.90;;;;;;5090433;27;20406;-75
2023/05/24 00:18:40;;;;;;;22.00;5.32;;;11.00;99.90;;;;;;5107029;27;20423;-75
2023/05/24 00:21:09;;;;;;;24.25;5.57;;;10.90;99.90;;;;;;5107275;27;20425;-75
2023/05/24 00:23:38;;;;;;;21.90;4.88;;;10.90;99.90;;;;;;5089389;28;20417;-75
2023/05/24 00:26:04;;;;;;;20.73;5.57;;;10.90;99.90;;;;;;5090097;28;20497;-75
2023/05/24 00:28:30;;;;;;;22.77;5.40;;;10.80;99.90;;;;;;5108545;27;20401;-75
2023/05/24 00:30:57;;;;;;;18.60;4.78;;;10.80;99.90;;;;;;5106584;28;20400;-75
2023/05/24 00:33:22;;;;;;;19.50;4.60;;;10.80;99.90;;;;;;5098786;28;20817;-75
2023/05/24 00:35:53;;;;;;;21.80;5.05;;;10.70;99.90;;;;;;5108445;28;20416;-75
2023/05/24 00:38:19;;;;;;;20.73;4.87;;;10.70;99.90;;;;;;5089229;28;20408;-75
2023/05/24 00:40:44;;;;;;;20.53;4.67;;;10.60;99.90;;;;;;5089650;28;20496;-75
2023/05/24 00:43:10;;;;;;;20.02;4.55;;;10.70;99.90;;;;;;5106794;27;20534;-75
2023/05/24 00:45:35;;;;;;;18.77;4.57;;;10.70;99.90;;;;;;5108232;27;20408;-75
2023/05/24 00:48:03;;;;;;;23.58;4.30;;;10.70;99.90;;;;;;5099644;27;20428;-76
2023/05/24 00:50:28;;;;;;;19.75;4.32;;;10.60;99.90;;;;;;5091149;28;20479;-75
2023/05/24 00:52:56;;;;;;;17.80;4.38;;;10.70;99.90;;;;;;5107097;27;20554;-75
2023/05/24 00:55:22;;;;;;;21.27;4.67;;;10.70;99.90;;;;;;5110515;27;20406;-76
2023/05/24 00:57:49;;;;;;;20.23;4.25;;;10.70;99.90;;;;;;5106377;28;20403;-75
2023/05/24 01:00:15;;;;;;;22.05;4.80;;;10.60;99.90;;;;;;5108891;27;20419;-75
2023/05/24 01:02:41;;;;;;;20.20;5.03;;;10.60;99.90;;;;;;5098163;28;20438;-75
2023/05/24 01:05:07;;;;;;;15.98;4.03;;;10.60;99.90;;;;;;5111653;27;20402;-75
2023/05/24 01:07:44;;;;;;;19.60;4.28;;;10.70;99.90;;;;;;5111222;27;20400;-76
2023/05/24 01:10:19;;;;;;;16.40;4.00;;;10.70;99.90;;;;;;5114280;27;20495;-75
2023/05/24 01:12:52;;;;;;;22.00;4.35;;;10.70;99.90;;;;;;5121628;27;20440;-76
2023/05/24 01:15:39;;;;;;;19.53;4.53;;;10.70;99.90;;;;;;5110828;28;20412;-75
2023/05/24 01:18:24;;;;;;;17.15;4.07;;;10.80;99.90;;;;;;5109885;27;20411;-75
2023/05/24 01:21:09;;;;;;;20.10;4.28;;;10.80;99.90;;;;;;5092545;28;20418;-75
2023/05/24 01:24:00;;;;;;;18.00;3.72;;;10.80;99.90;;;;;;5100350;28;20430;-76
2023/05/24 01:26:58;;;;;;;15.07;3.70;;;10.80;99.90;;;;;;5098795;28;20418;-75
2023/05/24 01:29:25;;;;;;;18.57;4.00;;;10.90;99.90;;;;;;5109108;28;20984;-75
2023/05/24 01:31:51;;;;;;;19.50;4.10;;;10.90;99.90;;;;;;5111176;28;20462;-75
2023/05/24 01:34:16;;;;;;;17.83;4.40;;;10.90;99.90;;;;;;5116226;28;20807;-75
2023/05/24 01:36:42;;;;;;;18.17;4.23;;;10.90;99.90;;;;;;5106060;28;20397;-76
2023/05/24 01:39:08;;;;;;;18.17;4.10;;;10.90;99.90;;;;;;5118120;28;20908;-75
2023/05/24 01:41:45;;;;;;;21.98;5.05;;;10.90;99.90;;;;;;5112485;28;20457;-75
2023/05/24 01:44:28;;;;;;;18.15;3.80;;;10.90;99.90;;;;;;5101805;28;20566;-75
2023/05/24 01:47:22;;;;;;;17.75;4.65;;;10.90;99.90;;;;;;5111225;27;20422;-75
2023/05/24 01:49:52;;;;;;;19.00;4.00;;;10.90;99.90;;;;;;5092154;28;20455;-76
2023/05/24 01:52:25;;;;;;;17.45;3.75;;;10.90;99.90;;;;;;5111017;27;20412;-76
2023/05/24 01:54:52;;;;;;;19.25;4.13;;;10.90;99.90;;;;;;5110301;28;20491;-76
2023/05/24 01:57:20;;;;;;;16.58;4.32;;;10.90;99.90;;;;;;5110517;27;20408;-75
2023/05/24 01:59:46;;;;;;;20.07;4.00;;;11.00;99.90;;;;;;5113599;27;20411;-76
2023/05/24 02:02:12;;;;;;;16.85;3.97;;;11.00;99.90;;;;;;5112290;27;20408;-75
2023/05/24 02:04:38;;;;;;;20.73;4.22;;;11.00;99.90;;;;;;5140865;27;20435;-75
2023/05/24 02:07:05;;;;;;;14.93;3.33;;;11.00;99.90;;;;;;5110745;27;20486;-75
2023/05/24 02:09:31;;;;;;;20.25;4.20;;;11.00;99.90;;;;;;5093696;28;21238;-76
2023/05/24 02:11:56;;;;;;;15.10;3.80;;;11.00;99.90;;;;;;5113963;27;20486;-75
2023/05/24 02:14:23;;;;;;;20.17;4.33;;;11.00;99.90;;;;;;5114191;27;20777;-75
2023/05/24 02:16:49;;;;;;;19.38;4.13;;;11.00;99.90;;;;;;5115644;27;20920;-75
2023/05/24 02:19:18;;;;;;;18.67;3.95;;;11.00;99.90;;;;;;5097899;28;21082;-76
2023/05/24 02:21:44;;;;;;;17.17;3.92;;;11.10;99.90;;;;;;5117117;27;20412;-75
2023/05/24 02:24:13;;;;;;;18.80;4.50;;;11.10;99.90;;;;;;5115694;27;20439;-75
2023/05/24 02:26:39;;;;;;;19.35;3.70;;;11.10;99.90;;;;;;5099176;28;20412;-76
2023/05/24 02:29:05;;;;;;;21.13;4.75;;;11.10;99.90;;;;;;5110370;28;20495;-76
2023/05/24 02:31:31;;;;;;;18.23;3.70;;;11.10;99.90;;;;;;5110327;28;20416;-76
2023/05/24 02:33:57;;;;;;;22.00;4.60;;;11.10;99.90;;;;;;5118624;27;20424;-76
2023/05/24 02:36:23;;;;;;;18.03;4.73;;;11.10;99.90;;;;;;5124832;27;20404;-76
2023/05/24 02:38:50;;;;;;;23.83;4.37;;;11.10;99.90;;;;;;5122844;27;20487;-75
2023/05/24 02:41:17;;;;;;;20.08;4.05;;;11.10;99.90;;;;;;5131795;27;20424;-76
2023/05/24 02:43:44;;;;;;;20.23;3.83;;;11.10;99.90;;;;;;5117539;27;20473;-76
2023/05/24 02:46:10;;;;;;;21.20;3.95;;;11.10;99.90;;;;;;5094586;27;20910;-75
2023/05/24 02:48:35;;;;;;;18.43;4.13;;;11.10;99.90;;;;;;5122916;27;20483;-76
2023/05/24 02:51:04;;;;;;;18.40;4.00;;;11.10;99.90;;;;;;5125486;27;20814;-76
2023/05/24 02:53:30;;;;;;;22.63;4.17;;;11.10;99.90;;;;;;5103576;28;20947;-75
2023/05/24 02:55:56;;;;;;;17.83;3.70;;;11.10;99.90;;;;;;5125080;27;20542;-75
2023/05/24 02:58:22;;;;;;;19.70;4.40;;;11.10;99.90;;;;;;5123249;27;20423;-76
2023/05/24 03:00:48;;;;;;;18.75;4.20;;;11.10;99.90;;;;;;5100621;27;20770;-75
2023/05/24 03:03:14;;;;;;;16.75;3.72;;;11.10;99.90;;;;;;5113283;27;20531;-76
2023/05/24 03:05:40;;;;;;;16.75;4.10;;;11.00;99.90;;;;;;5109715;27;20804;-76
2023/05/24 03:08:06;;;;;;;17.17;3.67;;;11.00;99.90;;;;;;5110077;27;20392;-75
2023/05/24 03:10:35;;;;;;;18.75;4.05;;;10.90;99.90;;;;;;5110113;27;20416;-76
2023/05/24 03:13:00;;;;;;;12.70;3.70;;;10.90;99.90;;;;;;5109536;27;20449;-75
2023/05/24 03:15:26;;;;;;;16.02;3.65;;;10.90;99.90;;;;;;5110367;28;20408;-76
2023/05/24 03:17:55;;;;;;;18.65;4.00;;;10.90;99.90;;;;;;5114078;27;20407;-75
2023/05/24 03:20:22;;;;;;;17.75;3.47;;;10.90;99.90;;;;;;5110068;27;20408;-76
2023/05/24 03:22:48;;;;;;;18.30;3.67;;;10.90;99.90;;;;;;5109190;27;20428;-76
2023/05/24 03:25:13;;;;;;;16.48;4.40;;;10.90;99.90;;;;;;5110096;27;20408;-76
2023/05/24 03:27:39;;;;;;;17.50;3.63;;;10.90;99.90;;;;;;5110234;27;20909;-76
2023/05/24 03:30:06;;;;;;;18.95;4.35;;;10.90;99.90;;;;;;5123518;27;20404;-76
2023/05/24 03:32:32;;;;;;;15.80;3.80;;;10.90;99.90;;;;;;5110167;27;20408;-76
2023/05/24 03:35:00;;;;;;;21.65;4.35;;;10.90;99.90;;;;;;5109352;27;20457;-75
2023/05/24 03:37:26;;;;;;;17.20;3.90;;;11.00;99.90;;;;;;5109331;27;20438;-75
2023/05/24 03:39:51;;;;;;;19.52;4.35;;;11.00;99.90;;;;;;5117282;27;20403;-76
2023/05/24 03:42:17;;;;;;;19.20;5.00;;;11.00;99.90;;;;;;5120070;27;20472;-75
2023/05/24 03:44:43;;;;;;;20.23;4.50;;;11.10;99.90;;;;;;5124251;27;20807;-75
2023/05/24 03:47:08;;;;;;;19.10;3.83;;;11.00;99.90;;;;;;5120785;27;21156;-76
2023/05/24 03:49:34;;;;;;;18.47;4.13;;;11.10;99.90;;;;;;5124129;27;20405;-75
2023/05/24 03:52:00;;;;;;;18.25;4.00;;;11.10;99.90;;;;;;5118890;27;20963;-75
2023/05/24 03:54:25;;;;;;;17.40;4.43;;;11.10;99.90;;;;;;5123136;27;20407;-75
2023/05/24 03:56:52;;;;;;;17.90;4.85;;;11.10;99.90;;;;;;5118322;27;20957;-75
2023/05/24 03:59:18;;;;;;;21.17;4.87;;;11.10;99.90;;;;;;5105426;27;20777;-76
2023/05/24 04:01:44;;;;;;;20.07;4.60;;;11.20;99.90;;;;;;5119424;27;20416;-75
2023/05/24 04:04:10;;;;;;;19.13;4.97;;;11.20;99.90;;;;;;5123815;27;20772;-75
2023/05/24 04:06:37;;;;;;;19.52;4.32;;;11.20;99.90;;;;;;5118103;27;20512;-76
2023/05/24 04:09:04;;;;;;;21.17;4.55;;;11.20;99.90;;;;;;5123719;27;20407;-75
2023/05/24 04:11:31;;;;;;;19.20;3.60;;;11.20;99.90;;;;;;5115050;27;20407;-75
2023/05/24 04:14:00;;;;;;;20.63;4.55;;;11.20;99.90;;;;;;5117010;27;20993;-76
2023/05/24 04:16:26;;;;;;;17.70;4.25;;;11.30;99.90;;;;;;5109177;28;20898;-75
2023/05/24 04:18:56;;;;;;;17.15;4.70;;;11.30;99.90;;;;;;5108299;27;20412;-76
2023/05/24 04:21:22;;;;;;;18.27;4.63;;;11.30;99.90;;;;;;5108657;27;20413;-76
2023/05/24 04:23:48;;;;;;;23.73;5.03;;;11.30;99.90;;;;;;5090639;28;20425;-76
2023/05/24 04:26:14;;;;;;;22.57;4.80;;;11.30;99.90;;;;;;5108312;27;20747;-76
2023/05/24 04:28:40;;;;;;;19.58;4.13;;;11.30;99.90;;;;;;5108683;27;20491;-75
2023/05/24 04:31:06;;;;;;;21.45;4.43;;;11.20;99.90;;;;;;5110221;27;21216;-76
2023/05/24 04:33:38;;;;;;;21.77;4.38;;;11.30;99.90;;;;;;5104799;27;20404;-75
2023/05/24 04:36:04;;;;;;;17.92;4.72;;;11.30;99.90;;;;;;5096829;27;20410;-75
2023/05/24 04:38:31;;;;;;;17.85;4.32;;;11.30;99.90;;;;;;5102104;27;20406;-75
2023/05/24 04:40:58;;;;;;;20.67;4.07;;;11.30;99.90;;;;;;5121675;27;20421;-76
2023/05/24 04:43:25;;;;;;;15.27;3.83;;;11.30;99.90;;;;;;5121360;27;20475;-75
2023/05/24 04:45:53;;;;;;;19.17;4.28;;;11.40;99.90;;;;;;5117275;27;20804;-76
2023/05/24 04:48:20;;;;;;;15.47;3.83;;;11.40;99.90;;;;;;5090107;28;20407;-75
2023/05/24 04:50:46;;;;;;;19.27;4.20;;;11.50;99.90;;;;;;5103610;28;20979;-76
2023/05/24 04:53:13;;;;;;;14.93;3.97;;;11.50;99.90;;;;;;5108394;28;20407;-76
2023/05/24 04:55:40;;;;;;;20.58;4.60;;;11.60;99.90;;;;;;5117658;27;20404;-76
2023/05/24 04:58:06;;;;;;;12.30;3.03;;;11.60;99.90;;;;;;5093639;28;20446;-75
2023/05/24 05:00:31;;;;;;;20.63;4.00;;;11.60;99.90;;;;;;5112844;27;20896;-76
2023/05/24 05:02:57;;;;;;;18.50;3.75;;;11.70;99.90;;;;;;5111631;27;20526;-76
2023/05/24 05:05:23;;;;;;;17.67;4.43;;;11.70;99.90;;;;;;5113598;27;20405;-75
2023/05/24 05:07:48;;;;;;;16.87;3.83;;;11.70;99.90;;;;;;5120939;27;20432;-76
2023/05/24 05:10:14;;;;;;;15.23;3.33;;;11.80;99.90;;;;;;5108216;28;20435;-75
2023/05/24 05:12:40;;;;;;;18.67;4.20;;;11.80;99.90;;;;;;5107270;28;20940;-76
2023/05/24 05:15:06;;;;;;;19.67;4.43;;;11.90;99.90;;;;;;5122150;27;20481;-75
2023/05/24 05:17:32;;;;;;;17.77;4.30;;;11.90;99.90;;;;;;5111394;27;20408;-75
2023/05/24 05:19:57;;;;;;;14.57;3.83;;;12.00;99.90;;;;;;5123343;27;20398;-72
2023/05/24 05:22:23;;;;;;;18.60;4.10;;;12.00;99.90;;;;;;5110132;27;21073;-73
2023/05/24 05:24:48;;;;;;;18.55;4.15;;;11.90;99.90;;;;;;5118530;28;20426;-75
2023/05/24 05:27:14;;;;;;;19.97;4.10;;;11.90;99.90;;;;;;5107904;28;20770;-76
2023/05/24 05:29:40;;;;;;;18.55;3.85;;;11.90;99.90;;;;;;5106548;28;20922;-75
2023/05/24 05:32:06;;;;;;;23.70;4.20;;;11.90;99.90;;;;;;5100739;28;20416;-75
2023/05/24 05:34:32;;;;;;;17.13;3.92;;;11.90;99.90;;;;;;5119688;28;20407;-76
2023/05/24 05:36:57;;;;;;;16.65;4.03;;;11.90;99.90;;;;;;5106330;28;20507;-76
2023/05/24 05:39:23;;;;;;;17.33;4.07;;;11.90;99.90;;;;;;5107493;28;20400;-75
2023/05/24 05:41:48;;;;;;;15.82;3.60;;;11.90;99.90;;;;;;5107900;28;20404;-76
2023/05/24 05:44:14;;;;;;;14.03;3.60;;;11.90;99.90;;;;;;5108176;28;20440;-76
2023/05/24 05:46:42;;;;;;;20.88;3.88;;;11.90;99.90;;;;;;5106567;28;20400;-76
2023/05/24 05:49:08;;;;;;;14.93;3.30;;;11.90;99.90;;;;;;5107011;28;20411;-76
2023/05/24 05:51:35;;;;;;;19.13;4.20;;;11.90;99.90;;;;;;5107224;28;20404;-76
2023/05/24 05:54:01;;;;;;;20.93;4.40;;;11.90;99.90;;;;;;5107729;28;20778;-76
2023/05/24 05:56:27;;;;;;;16.97;3.40;;;11.90;99.90;;;;;;5107467;28;20404;-76
2023/05/24 05:58:53;;;;;;;20.08;4.05;;;12.00;99.90;;;;;;5107770;28;20818;-76
2023/05/24 06:01:18;;;;;;;15.77;3.40;;;12.00;99.90;;;;;;5106826;28;20473;-76
2023/05/24 06:03:44;;;;;;;15.93;3.67;;;12.00;99.90;;;;;;5106454;28;20468;-76
2023/05/24 06:06:10;;;;;;;16.77;3.27;;;12.10;99.90;;;;;;5106661;28;20392;-75
2023/05/24 06:08:35;;;;;;;15.80;3.90;;;12.10;99.90;;;;;;5112529;28;20912;-76
2023/05/24 06:11:01;;;;;;;13.65;3.50;;;12.20;99.90;;;;;;5104043;27;20413;-76
2023/05/24 06:13:27;;;;;;;14.73;3.90;;;12.30;99.90;;;;;;5115417;27;20492;-76
2023/05/24 06:15:53;;;;;;;18.55;5.07;;;12.30;99.90;;;;;;5107199;28;20487;-76
2023/05/24 06:18:19;;;;;;;13.77;3.03;;;12.30;99.90;;;;;;5106461;28;20400;-76
2023/05/24 06:20:45;;;;;;;16.42;3.55;;;12.30;99.90;;;;;;5106141;28;20943;-76
2023/05/24 06:23:11;;;;;;;18.65;4.00;;;12.40;99.90;;;;;;5106508;28;20424;-76
2023/05/24 06:25:39;;;;;;;17.42;3.97;;;12.40;99.90;;;;;;5106938;28;20530;-76
2023/05/24 06:28:04;;;;;;;15.70;3.72;;;12.40;99.90;;;;;;5106840;28;20901;-77
2023/05/24 06:30:32;;;;;;;14.15;3.35;;;12.40;99.90;;;;;;5108564;28;20508;-76
2023/05/24 06:32:58;;;;;;;15.77;3.80;;;12.50;99.90;;;;;;5109415;27;20469;-76
2023/05/24 06:35:23;;;;;;;15.93;3.50;;;12.60;99.90;;;;;;5111751;27;20981;-76
2023/05/24 06:37:49;;;;;;;12.97;3.23;;;12.60;99.90;;;;;;5109671;28;20408;-76
2023/05/24 06:40:15;;;;;;;15.30;3.47;;;12.60;99.90;;;;;;5120347;27;20410;-76
2023/05/24 06:42:40;;;;;;;14.33;3.33;;;12.70;99.90;;;;;;5099103;28;20411;-76
2023/05/24 06:45:07;;;;;;;13.52;3.08;;;12.70;99.90;;;;;;5117784;27;20413;-76
2023/05/24 06:47:32;;;;;;;18.80;3.38;;;12.70;99.90;;;;;;5126195;27;20406;-76
2023/05/24 06:49:59;;;;;;;15.40;3.13;;;12.70;99.90;;;;;;5125627;27;20409;-76
2023/05/24 06:52:25;;;;;;;15.93;3.35;;;12.70;99.90;;;;;;5127716;27;20467;-76
2023/05/24 06:54:51;;;;;;;16.55;3.33;;;12.70;99.90;;;;;;5099736;28;20420;-76
2023/05/24 06:57:17;;;;;;;14.30;3.25;;;12.70;99.90;;;;;;5127082;27;20403;-76
2023/05/24 06:59:42;;;;;;;14.30;3.00;;;12.70;99.90;;;;;;5126793;27;20399;-76
2023/05/24 07:02:08;;;;;;;14.57;3.25;;;12.80;99.90;;;;;;5125773;27;20398;-76
2023/05/24 07:04:34;;;;;;;10.47;3.30;;;12.80;99.90;;;;;;5126051;27;20972;-77
2023/05/24 07:06:59;;;;;;;12.18;2.70;;;12.80;99.90;;;;;;5101543;28;20404;-76
2023/05/24 07:09:25;;;;;;;16.07;3.53;;;12.90;99.90;;;;;;5114268;27;20925;-76
2023/05/24 07:11:51;;;;;;;16.70;3.92;;;13.00;99.90;;;;;;5109439;28;20404;-76
2023/05/24 07:14:17;;;;;;;14.20;3.20;;;13.10;99.90;;;;;;5116052;27;20406;-76
2023/05/24 07:16:43;;;;;;;12.43;2.75;;;13.10;99.90;;;;;;5126212;27;20432;-76
2023/05/24 07:19:08;;;;;;;12.37;2.97;;;13.20;99.90;;;;;;5122293;27;20404;-76
2023/05/24 07:21:34;;;;;;;13.17;3.13;;;13.30;99.90;;;;;;5124116;27;20486;-76
2023/05/24 07:24:01;;;;;;;12.27;2.67;;;13.40;99.90;;;;;;5121129;27;20929;-76
2023/05/24 07:26:26;;;;;;;12.40;3.20;;;13.50;99.90;;;;;;5116262;27;20441;-76
2023/05/24 07:28:52;;;;;;;10.35;2.55;;;13.40;99.90;;;;;;5105290;27;20834;-76
2023/05/24 07:31:18;;;;;;;13.25;3.08;;;13.40;99.90;;;;;;5124764;27;20431;-76
2023/05/24 07:33:43;;;;;;;14.87;3.13;;;13.40;99.90;;;;;;5123670;27;20413;-76
2023/05/24 07:36:09;;;;;;;9.90;2.73;;;13.40;99.90;;;;;;5118313;27;20404;-76
2023/05/24 07:38:35;;;;;;;14.07;3.20;;;13.50;99.90;;;;;;5115718;27;20421;-76
2023/05/24 07:41:02;;;;;;;13.32;2.90;;;13.60;99.90;;;;;;5122691;27;20417;-76
2023/05/24 07:43:28;;;;;;;13.35;2.83;;;13.70;99.90;;;;;;5107995;27;20798;-76
2023/05/24 07:45:53;;;;;;;15.80;2.92;;;13.70;99.90;;;;;;5107531;27;20396;-76
2023/05/24 07:48:20;;;;;;;11.57;2.63;;;13.90;99.90;;;;;;5109375;28;20403;-76
2023/05/24 07:50:48;;;;;;;12.57;3.00;;;13.80;99.90;;;;;;5091977;28;20404;-76
2023/05/24 07:53:15;;;;;;;13.75;3.03;;;13.80;99.90;;;;;;5118943;27;20423;-76
2023/05/24 07:55:40;;;;;;;14.10;3.00;;;13.80;99.90;;;;;;5125000;27;20448;-76
2023/05/24 07:58:06;;;;;;;13.90;2.80;;;13.80;99.90;;;;;;5122299;27;20410;-76
2023/05/24 08:00:32;;;;;;;14.18;3.13;;;13.80;99.90;;;;;;5124873;27;20405;-76
2023/05/24 08:03:02;;;;;;;13.20;3.10;;;13.80;99.90;;;;;;5123231;27;20424;-76
2023/05/24 08:05:27;;;;;;;12.63;3.20;;;13.80;99.90;;;;;;5098576;28;20413;-76
2023/05/24 08:07:53;;;;;;;12.43;2.80;;;13.90;99.90;;;;;;5101240;27;20409;-76
2023/05/24 08:10:19;;;;;;;9.77;2.83;;;14.00;99.90;;;;;;5125077;27;20795;-76
2023/05/24 08:12:45;;;;;;;11.07;2.70;;;14.00;99.90;;;;;;5121162;27;20494;-76
2023/05/24 08:15:11;;;;;;;12.32;2.95;;;14.00;99.90;;;;;;5125018;27;20535;-76
2023/05/24 08:17:40;;;;;;;13.63;3.13;;;14.00;99.90;;;;;;5121322;27;20423;-76
2023/05/24 08:20:08;;;;;;;11.73;2.58;;;14.10;99.90;;;;;;5108383;27;20413;-76
2023/05/24 08:22:34;;;;;;;10.73;2.67;;;14.20;99.90;;;;;;5110870;27;20420;-76
2023/05/24 08:25:00;;;;;;;14.10;3.38;;;14.30;99.90;;;;;;5125065;27;20947;-76
2023/05/24 08:27:29;;;;;;;11.43;2.77;;;14.40;99.90;;;;;;5117570;27;20444;-76
2023/05/24 08:29:54;;;;;;;11.95;2.75;;;14.40;99.90;;;;;;5108078;27;20400;-76
2023/05/24 08:32:20;;;;;;;10.00;2.90;;;14.30;99.90;;;;;;5118811;27;21124;-76
2023/05/24 08:34:46;;;;;;;9.10;2.47;;;14.30;99.90;;;;;;5109301;28;20435;-76
2023/05/24 08:37:14;;;;;;;9.67;2.57;;;14.20;99.90;;;;;;5107471;27;20408;-76
2023/05/24 08:39:39;;;;;;;8.55;2.15;;;14.20;99.90;;;;;;5090834;28;20423;-76
2023/05/24 08:42:06;;;;;;;12.30;2.90;;;14.30;99.90;;;;;;5108908;28;20400;-76
2023/05/24 08:45:00;;;;;;;11.68;2.67;;;14.50;99.90;;;;;;5090709;28;20434;-76
2023/05/24 08:47:27;;;;;;;8.80;2.30;;;14.60;99.90;;;;;;5101701;28;20412;-76
2023/05/24 08:49:54;;;;;;;11.15;2.83;;;14.50;99.90;;;;;;5108655;27;20559;-76
2023/05/24 08:52:21;;;;;;;10.50;2.40;;;14.50;99.90;;;;;;5107563;28;20411;-76
2023/05/24 08:54:48;;;;;;;12.70;2.65;;;14.30;99.90;;;;;;5106726;28;20408;-76
2023/05/24 08:57:15;;;;;;;10.85;2.40;;;14.30;99.90;;;;;;5109421;28;20496;-76
2023/05/24 08:59:41;;;;;;;12.18;2.70;;;14.20;99.90;;;;;;5107897;28;20413;-76
2023/05/24 09:02:10;;;;;;;13.20;3.35;;;14.20;99.90;;;;;;5090975;28;20960;-76
2023/05/24 09:04:39;;;;;;;12.70;2.97;;;14.20;99.90;;;;;;5107600;28;20436;-76
2023/05/24 09:07:06;;;;;;;10.80;3.03;;;14.20;99.90;;;;;;5098028;28;20774;-76
2023/05/24 09:09:33;;;;;;;15.17;3.67;;;14.20;99.90;;;;;;5106857;28;20404;-76
2023/05/24 09:12:03;;;;;;;13.07;3.10;;;14.20;99.90;;;;;;5115566;27;20439;-76
2023/05/24 09:14:29;;;;;;;13.82;3.05;;;14.20;99.90;;;;;;5118766;27;20428;-76
2023/05/24 09:16:56;;;;;;;10.73;2.63;;;14.20;99.90;;;;;;5089921;28;20408;-76
2023/05/24 09:19:22;;;;;;;10.50;2.65;;;14.20;99.90;;;;;;5119279;27;20564;-77
2023/05/24 09:21:48;;;;;;;10.25;2.38;;;14.30;99.90;;;;;;5124034;27;20402;-76
2023/05/24 09:24:14;;;;;;;13.55;3.08;;;14.40;99.90;;;;;;5115453;28;20436;-76
2023/05/24 09:26:41;;;;;;;13.77;3.20;;;14.50;99.90;;;;;;5116215;27;20407;-76
2023/05/24 09:29:07;;;;;;;13.65;2.97;;;14.60;99.90;;;;;;5110794;27;20404;-77
2023/05/24 09:31:34;;;;;;;12.10;3.15;;;14.60;99.90;;;;;;5120986;28;20402;-76
2023/05/24 09:34:00;;;;;;;11.52;2.67;;;14.90;99.90;;;;;;5109961;28;21007;-76
2023/05/24 09:36:28;;;;;;;12.43;3.40;;;15.30;99.90;;;;;;5114943;28;20404;-77
2023/05/24 09:39:21;;;;;;;11.57;3.10;;;15.80;99.90;;;;;;5118740;28;20771;-76
2023/05/24 09:41:55;;;;;;;11.30;2.58;;;16.10;99.90;;;;;;5117049;27;20491;-76
2023/05/24 09:44:28;;;;;;;11.73;2.70;;;16.30;99.90;;;;;;5115814;27;20438;-75
2023/05/24 09:47:02;;;;;;;11.57;3.13;;;16.50;99.90;;;;;;5106490;28;20412;-75
2023/05/24 09:49:28;;;;;;;12.63;2.53;;;16.50;99.90;;;;;;5124220;28;20438;-75
2023/05/24 09:51:53;;;;;;;10.23;2.47;;;16.40;99.90;;;;;;5120219;28;20520;-76
2023/05/24 09:54:19;;;;;;;16.90;3.17;;;16.20;99.90;;;;;;5124204;28;20398;-75
2023/05/24 09:56:45;;;;;;;14.35;3.03;;;16.20;99.90;;;;;;5109438;27;20436;-75
2023/05/24 09:59:11;;;;;;;11.20;2.72;;;16.20;99.90;;;;;;5106575;28;20404;-76
2023/05/24 10:01:37;;;;;;;12.77;2.83;;;16.20;99.90;;;;;;5090062;28;20415;-75
2023/05/24 10:04:05;;;;;;;11.07;3.00;;;16.00;99.90;;;;;;5090056;28;20432;-75
2023/05/24 10:06:36;;;;;;;12.90;2.70;;;15.90;99.90;;;;;;5110826;27;20435;-76
2023/05/24 10:09:04;;;;;;;11.63;2.80;;;15.80;99.90;;;;;;5094253;28;20408;-76
2023/05/24 10:11:32;;;;;;;13.80;2.50;;;15.80;99.90;;;;;;5094574;27;20414;-76
2023/05/24 10:13:58;;;;;;;9.35;2.83;;;15.90;99.90;;;;;;5112180;27;20404;-76
2023/05/24 10:16:24;;;;;;;12.23;2.35;;;16.00;99.90;;;;;;5111169;27;20404;-76
2023/05/24 10:18:50;;;;;;;9.73;2.30;;;16.00;99.90;;;;;;5106977;28;20918;-76
2023/05/24 10:21:18;;;;;;;9.00;2.50;;;16.10;99.90;;;;;;5110848;27;20404;-76
2023/05/24 10:23:49;;;;;;;10.00;2.30;;;16.20;99.90;;;;;;5106869;27;20429;-76
2023/05/24 10:26:16;;;;;;;10.23;2.33;;;16.70;99.90;;;;;;5110741;27;20408;-76
2023/05/24 10:28:53;;;;;;;9.83;2.23;;;17.30;99.90;;;;;;5112740;27;20751;-76
2023/05/24 10:31:30;;;;;;;9.98;2.67;;;17.50;99.90;;;;;;5110917;27;20404;-76
2023/05/24 10:33:59;;;;;;;9.80;2.40;;;17.40;99.90;;;;;;5116370;27;20402;-76
2023/05/24 10:36:25;;;;;;;8.80;2.50;;;17.10;99.90;;;;;;5111903;27;20465;-76
2023/05/24 10:38:51;;;;;;;8.93;1.90;;;17.00;99.90;;;;;;5102818;27;20758;-76
2023/05/24 10:41:18;;;;;;;8.20;2.13;;;17.40;99.90;;;;;;5127014;27;20445;-76
2023/05/24 10:43:46;;;;;;;10.40;2.58;;;17.70;99.90;;;;;;5110763;27;20951;-76
2023/05/24 10:46:15;;;;;;;8.90;1.95;;;18.10;99.90;;;;;;5109494;28;20778;-76
2023/05/24 10:48:41;;;;;;;8.30;1.97;;;18.30;99.90;;;;;;5111474;27;20487;-77
2023/05/24 10:51:32;;;;;;;7.93;1.80;;;18.40;99.90;;;;;;5110453;27;20416;-77
2023/05/24 10:54:10;;;;;;;9.60;2.42;;;18.50;99.90;;;;;;5109835;27;20509;-77
2023/05/24 10:56:41;;;;;;;9.88;2.20;;;18.50;99.90;;;;;;5110371;28;20398;-76
2023/05/24 10:59:07;;;;;;;10.45;2.28;;;18.80;99.90;;;;;;5110234;28;20427;-76
2023/05/24 11:01:33;;;;;;;8.57;2.13;;;19.10;99.90;;;;;;5110366;27;20987;-77
2023/05/24 11:04:17;;;;;;;8.15;1.95;;;19.10;99.90;;;;;;5092619;28;20436;-76
2023/05/24 11:07:00;;;;;;;9.40;2.22;;;19.10;99.50;;;;;;5109580;28;20415;-76
2023/05/24 11:09:26;;;;;;;11.80;2.42;;;18.80;99.90;;;;;;5110608;27;20408;-76
2023/05/24 11:12:13;;;;;;;9.13;2.50;;;18.30;99.90;;;;;;5107795;28;20541;-76
2023/05/24 11:14:39;;;;;;;9.50;2.53;;;18.00;99.90;;;;;;5109827;27;20413;-76
2023/05/24 11:17:09;;;;;;;11.68;2.50;;;17.80;99.90;;;;;;5109182;27;20477;-77
2023/05/24 11:19:36;;;;;;;11.05;2.30;;;17.60;99.90;;;;;;5107555;27;20410;-76
2023/05/24 11:22:06;;;;;;;9.80;2.55;;;17.60;99.90;;;;;;5108252;28;20515;-76
2023/05/24 11:24:32;;;;;;;8.23;2.20;;;17.40;99.90;;;;;;5108129;28;20432;-75
2023/05/24 11:26:59;;;;;;;9.52;2.33;;;17.30;99.90;;;;;;5091903;28;20458;-76
2023/05/24 11:29:25;;;;;;;10.77;2.40;;;17.30;99.90;;;;;;5109006;27;20762;-76
2023/05/24 11:31:51;;;;;;;9.57;2.50;;;17.70;99.90;;;;;;5121132;27;20410;-76
2023/05/24 11:34:18;;;;;;;9.90;2.42;;;18.10;99.90;;;;;;5108824;27;20491;-76
2023/05/24 11:36:45;;;;;;;10.47;2.30;;;18.20;99.90;;;;;;5110383;27;20936;-76
2023/05/24 11:39:12;;;;;;;11.98;2.65;;;18.10;99.90;;;;;;5108686;28;20400;-76
2023/05/24 11:41:38;;;;;;;9.95;2.25;;;17.90;99.90;;;;;;5105610;28;20413;-76
2023/05/24 11:44:06;;;;;;;11.40;2.28;;;17.80;99.90;;;;;;5090962;28;20432;-76
2023/05/24 11:46:32;;;;;;;11.10;2.45;;;17.70;99.90;;;;;;5109375;27;20400;-76
2023/05/24 11:48:59;;;;;;;10.67;2.50;;;17.70;99.90;;;;;;5108416;27;21287;-76
2023/05/24 11:51:34;;;;;;;11.60;2.65;;;17.60;99.90;;;;;;5091575;28;20400;-76
2023/05/24 11:54:00;;;;;;;11.40;2.63;;;17.60;99.90;;;;;;5108015;27;20467;-76
2023/05/24 11:56:29;;;;;;;11.23;2.50;;;17.60;99.90;;;;;;5109583;28;20849;-76
2023/05/24 11:59:14;;;;;;;13.57;2.83;;;17.50;99.90;;;;;;5109488;27;20466;-76
2023/05/24 12:01:40;;;;;;;10.75;2.67;;;17.50;99.90;;;;;;5110017;27;20778;-76
2023/05/24 12:04:08;;;;;;;12.50;3.00;;;17.30;99.90;;;;;;5110732;27;20432;-76
2023/05/24 12:06:42;;;;;;;12.27;2.97;;;17.30;99.90;;;;;;5110062;27;20399;-77
2023/05/24 12:09:09;;;;;;;11.07;2.23;;;17.30;99.90;;;;;;5091920;28;20404;-76
2023/05/24 12:11:40;;;;;;;12.32;3.22;;;17.40;99.90;;;;;;5111159;27;20404;-76
2023/05/24 12:14:10;;;;;;;10.55;2.50;;;17.50;99.90;;;;;;5109506;27;20419;-76
2023/05/24 12:16:36;;;;;;;10.00;2.50;;;17.70;99.90;;;;;;5112136;27;20404;-76
2023/05/24 12:19:01;;;;;;;10.18;2.40;;;17.70;99.90;;;;;;5110549;27;20862;-76
2023/05/24 12:21:31;;;;;;;9.93;2.30;;;17.80;99.90;;;;;;5109476;27;20411;-76
2023/05/24 12:24:08;;;;;;;9.52;2.40;;;17.80;99.90;;;;;;5109330;27;20942;-77
2023/05/24 12:26:36;;;;;;;10.93;2.65;;;17.90;99.90;;;;;;5109233;27;20503;-76
2023/05/24 12:29:02;;;;;;;10.13;2.60;;;17.90;99.90;;;;;;5109936;27;20409;-76
2023/05/24 12:31:27;;;;;;;17.77;3.20;;;17.80;99.90;;;;;;5093098;28;20440;-76
2023/05/24 12:33:53;;;;;;;12.75;2.90;;;17.80;99.50;;;;;;5109364;27;20823;-76
2023/05/24 12:36:19;;;;;;;9.77;2.50;;;17.70;99.90;;;;;;5109130;27;20925;-76
2023/05/24 12:38:45;;;;;;;20.25;3.65;;;17.60;99.90;;;;;;5107781;27;21015;-76
2023/05/24 12:41:11;;;;;;;13.17;2.73;;;17.40;99.90;;;;;;5091096;28;20886;-76